Pagina principale
METAR-TAF:

METAR-TAF

Aeroporti :

Aeroporto di Gibilterra

Gibilterra, Gibilterra

latitudine: 36-09N, longitudine: 005-21W, altezza: 5 m

Osservazione

Il bollettino è stato emesso 10 minuti fa, alle 05:50 UTC
Vento 18 kt da est
Temperature 14°C
Umidità 77%
Pressione 1025 hPa
Visibilità 10 km o più
Poco nuvoloso ad un'altezza di 2200 ft
Nuvoloso ad un'altezza di 3500 ft

METAR: LXGB 210550Z 08018KT 9999 FEW022 BKN035 14/10 Q1025

Ora: 07:00 (06:00 UTC)

Previsione

Il bollettino è stato emesso 52 minuti fa, alle 05:08 UTC
Previsione valida dal 21 alle 06 UTC al 21 alle 15 UTC
Vento 18 kt da est con raffiche fino a 28 kt
Visibilità 10 km o più
Poco nuvoloso ad un'altezza di 1800 ft
Nuvoloso ad un'altezza di 3000 ft
Temporaneamente
dal 21 alle 06 UTC al 21 alle 15 UTC
Nubi sparse ad un'altezza di 1800 ft

TAF: LXGB 210508Z 2106/2115 09018G28KT 9999 FEW018 BKN030 TEMPO 2106/2115 SCT018

Osservazioni e previsioni meteorologiche di più di 4000 aeroporti (messaggi METAR e TAF).

Le stazioni disponibili sono rappresentate dai dischi gialli e rossi sulla carta.

Puntare il mouse per vedere il nome della stazione.

Clicca sopra per visualizzare le osservazioni e previsioni meteorologiche.

Per cambiare la mappa : fare clic sui pulsanti verdi con una croce nera per ingrandire, il pulsante verde con un trattino per diminuire, o sulla freccia verde per le mappe adiacenti.


METAR-TAF: